Terminal Aerodrome Forecast
Issued by NWS Cleveland, OH

Home | Current Version | Previous Version | Text Only | Print | Product List | Glossary On
Versions: 1 2 3 4 5 6 7 8 9 10 11 12 13 14 15 16 17 18 19 20
000
FTUS41 KCLE 011900 AAA
TAFERI
TAF AMD
KERI 011920Z 0119/0218 28005KT 3/4SM -SN BKN015 OVC025
      TEMPO 0119/0123 24006KT 2SM -SN OVC012
     FM012300 25008KT 3SM -SN OVC015
     FM020400 26010KT P6SM OVC015
     FM021400 27010G18KT P6SM BKN020=

USA.gov is the U.S. government's official web portal to all federal, state and local government web resources and services.